createdAt,value
2022-12-04T00:02:20.037Z,23.20
2022-12-04T00:07:22.778Z,24.40
2022-12-04T00:12:26.000Z,25.60
2022-12-04T00:17:30.177Z,28.60
2022-12-04T00:22:33.054Z,24.60
2022-12-04T00:27:35.888Z,26.60
2022-12-04T00:32:39.971Z,24.20
2022-12-04T00:37:42.714Z,28.60
2022-12-04T00:42:45.499Z,25.00
2022-12-04T00:47:49.632Z,27.00
2022-12-04T00:52:52.545Z,23.60
2022-12-04T00:57:59.765Z,24.60
2022-12-04T01:03:04.393Z,26.00
2022-12-04T01:08:07.316Z,23.60
2022-12-04T01:13:10.187Z,23.20
2022-12-04T01:18:14.378Z,23.60
2022-12-04T01:23:17.309Z,23.00
2022-12-04T01:28:20.239Z,23.00
2022-12-04T01:33:24.346Z,21.80
2022-12-04T01:38:27.241Z,23.20
2022-12-04T01:43:30.980Z,26.00
2022-12-04T01:48:36.035Z,22.20
2022-12-04T01:53:40.306Z,23.40
2022-12-04T01:58:44.357Z,26.60
2022-12-04T02:03:48.479Z,24.00
2022-12-04T02:08:51.244Z,25.00
2022-12-04T02:13:58.394Z,22.00
2022-12-04T02:19:06.117Z,24.80
2022-12-04T02:24:32.470Z,21.60
2022-12-04T02:29:38.219Z,22.80
2022-12-04T02:34:43.030Z,20.00
2022-12-04T02:39:49.238Z,21.60
2022-12-04T02:44:54.457Z,22.60
2022-12-04T02:49:58.853Z,19.20
2022-12-04T02:55:08.191Z,18.20
2022-12-04T03:00:14.354Z,21.60
2022-12-04T03:05:18.184Z,22.40
2022-12-04T03:10:23.892Z,24.00
2022-12-04T03:15:30.578Z,23.00
2022-12-04T03:20:33.968Z,21.00
2022-12-04T03:25:38.355Z,21.00
2022-12-04T03:30:44.339Z,20.40
2022-12-04T03:35:48.632Z,23.40
2022-12-04T03:40:55.779Z,20.00
2022-12-04T03:46:00.771Z,18.40
2022-12-04T03:51:06.588Z,21.40
2022-12-04T03:56:11.186Z,22.00
2022-12-04T04:01:15.487Z,21.00
2022-12-04T04:06:20.159Z,17.20
2022-12-04T04:11:24.979Z,19.80
2022-12-04T04:16:47.353Z,21.00
2022-12-04T04:22:08.334Z,19.40
2022-12-04T04:27:11.146Z,21.60
2022-12-04T04:32:15.906Z,21.00
2022-12-04T04:37:24.700Z,22.40
2022-12-04T04:42:28.749Z,19.20
2022-12-04T04:47:34.612Z,20.20
2022-12-04T04:52:37.511Z,19.80
2022-12-04T04:57:40.299Z,19.40
2022-12-04T05:02:44.667Z,21.20
2022-12-04T05:07:47.605Z,16.80
2022-12-04T05:12:50.416Z,18.20
2022-12-04T05:17:54.511Z,17.80
2022-12-04T05:22:57.356Z,18.20
2022-12-04T05:28:00.152Z,16.80
2022-12-04T05:33:04.546Z,19.00
2022-12-04T05:38:07.306Z,17.40
2022-12-04T05:43:10.084Z,18.20
2022-12-04T05:48:14.306Z,18.60
2022-12-04T05:53:17.179Z,14.00
2022-12-04T05:58:19.953Z,17.20
2022-12-04T06:03:24.179Z,17.80
2022-12-04T06:08:27.118Z,16.40
2022-12-04T06:13:29.888Z,18.20
2022-12-04T06:18:34.069Z,20.20
2022-12-04T06:23:36.995Z,13.80
2022-12-04T06:28:39.732Z,18.00
2022-12-04T06:33:43.944Z,16.00
2022-12-04T06:38:47.474Z,15.60
2022-12-04T06:43:51.539Z,16.80
2022-12-04T06:48:56.476Z,16.40
2022-12-04T06:53:59.452Z,16.20
2022-12-04T06:59:03.017Z,15.40
2022-12-04T07:04:07.208Z,14.60
2022-12-04T07:09:11.160Z,16.00
2022-12-04T07:14:14.044Z,18.40
2022-12-04T07:19:18.168Z,15.80
2022-12-04T07:24:21.043Z,17.20
2022-12-04T07:29:23.820Z,14.80
2022-12-04T07:34:28.252Z,16.60
2022-12-04T07:39:31.177Z,15.80
2022-12-04T07:44:33.973Z,15.60
2022-12-04T07:49:38.626Z,16.40
2022-12-04T07:54:41.582Z,15.60
2022-12-04T07:59:44.449Z,14.60
2022-12-04T08:04:48.880Z,34.60
2022-12-04T08:09:51.759Z,63.33
2022-12-04T08:14:54.493Z,69.25
2022-12-04T08:19:58.855Z,77.00
2022-12-04T08:25:01.757Z,70.75
2022-12-04T08:30:04.999Z,69.00
2022-12-04T08:35:09.899Z,65.33
2022-12-04T08:40:14.149Z,66.00
2022-12-04T08:45:17.120Z,65.67
2022-12-04T08:50:21.231Z,59.67
2022-12-04T08:55:24.064Z,60.00
2022-12-04T09:00:27.272Z,54.00
2022-12-04T09:05:31.753Z,58.67
2022-12-04T09:10:35.217Z,55.33
2022-12-04T09:15:39.780Z,55.67
2022-12-04T09:20:44.036Z,57.00
2022-12-04T09:25:46.895Z,58.67
2022-12-04T09:30:58.055Z,56.33
2022-12-04T09:36:02.242Z,58.33
2022-12-04T09:41:08.316Z,54.00
2022-12-04T09:46:12.799Z,56.67
2022-12-04T09:51:19.600Z,56.00
2022-12-04T09:56:22.794Z,58.33
2022-12-04T10:01:26.363Z,55.33
2022-12-04T10:06:33.164Z,54.67
2022-12-04T10:11:41.486Z,57.00
2022-12-04T10:16:51.380Z,54.00
2022-12-04T10:22:00.456Z,52.00
2022-12-04T10:27:05.715Z,58.67
2022-12-04T10:32:17.329Z,53.67
2022-12-04T10:37:21.755Z,47.75
2022-12-04T10:42:28.375Z,52.33
2022-12-04T10:47:31.888Z,45.50
2022-12-04T10:52:36.091Z,46.50
2022-12-04T10:57:40.038Z,50.33
2022-12-04T11:02:43.082Z,45.50
2022-12-04T11:07:48.092Z,50.33
2022-12-04T11:12:57.575Z,49.33
2022-12-04T11:18:08.973Z,48.00
2022-12-04T11:23:15.113Z,52.25
2022-12-04T11:28:39.871Z,48.25
2022-12-04T11:33:46.709Z,46.75
2022-12-04T11:38:50.855Z,57.67
2022-12-04T11:43:59.383Z,54.33
2022-12-04T11:49:04.012Z,51.33
2022-12-04T11:54:15.579Z,53.00
2022-12-04T11:59:37.558Z,56.00
2022-12-04T12:04:58.335Z,54.67
2022-12-04T12:10:05.041Z,56.33
2022-12-04T12:15:12.980Z,50.00
2022-12-04T12:20:17.701Z,55.67
2022-12-04T12:25:22.799Z,53.33
2022-12-04T12:30:25.583Z,51.33
2022-12-04T12:35:30.497Z,54.00
2022-12-04T12:40:36.296Z,52.00
2022-12-04T12:45:42.846Z,50.33
2022-12-04T12:50:54.714Z,53.33
2022-12-04T12:56:10.716Z,45.00
2022-12-04T13:01:18.358Z,49.33
2022-12-04T13:06:24.287Z,49.00
2022-12-04T13:11:28.707Z,50.00
2022-12-04T13:16:34.343Z,41.25
2022-12-04T13:21:38.401Z,48.00
2022-12-04T13:26:49.524Z,48.50
2022-12-04T13:31:55.645Z,41.75
2022-12-04T13:37:16.210Z,47.75
2022-12-04T13:42:23.488Z,43.25
2022-12-04T13:47:28.145Z,41.00
2022-12-04T13:52:40.483Z,44.50
2022-12-04T13:57:54.035Z,43.75
2022-12-04T14:02:57.546Z,44.25
2022-12-04T14:08:07.337Z,40.00
2022-12-04T14:13:19.142Z,41.75
2022-12-04T14:18:27.027Z,47.00
2022-12-04T14:23:35.597Z,49.00
2022-12-04T14:28:43.793Z,53.67
2022-12-04T14:33:49.451Z,46.67
2022-12-04T14:38:59.281Z,55.00
2022-12-04T14:44:03.434Z,50.33
2022-12-04T14:49:15.087Z,52.67
2022-12-04T14:54:22.068Z,51.00
2022-12-04T14:59:29.737Z,53.67
2022-12-04T15:04:34.088Z,54.67
2022-12-04T15:09:54.658Z,47.75
2022-12-04T15:14:58.959Z,47.00
2022-12-04T15:20:10.168Z,48.00
2022-12-04T15:25:18.525Z,49.33
2022-12-04T15:30:23.690Z,52.33
2022-12-04T15:35:28.250Z,57.00
2022-12-04T15:40:31.305Z,54.33
2022-12-04T15:45:35.427Z,54.00
2022-12-04T15:50:38.411Z,51.00
2022-12-04T15:55:49.508Z,52.50
2022-12-04T16:00:56.695Z,54.33
2022-12-04T16:06:07.761Z,55.33
2022-12-04T16:11:24.416Z,49.00
2022-12-04T16:16:28.712Z,45.50
2022-12-04T16:21:32.079Z,51.33
2022-12-04T16:26:35.055Z,46.50
2022-12-04T16:31:39.545Z,53.50
2022-12-04T16:36:42.504Z,52.50
2022-12-04T16:41:45.259Z,44.00
2022-12-04T16:46:49.693Z,49.00
2022-12-04T16:51:52.503Z,51.00
2022-12-04T16:56:55.408Z,46.00
2022-12-04T17:01:59.597Z,45.00
2022-12-04T17:07:02.403Z,46.50
2022-12-04T17:12:05.415Z,47.50
2022-12-04T17:17:09.536Z,48.67
2022-12-04T17:22:14.155Z,50.67
2022-12-04T17:27:16.887Z,44.25
2022-12-04T17:32:21.022Z,51.25
2022-12-04T17:37:23.778Z,49.75
2022-12-04T17:42:26.580Z,53.67
2022-12-04T17:47:30.726Z,48.00
2022-12-04T17:52:33.862Z,53.00
2022-12-04T17:57:36.689Z,54.00
2022-12-04T18:02:42.538Z,52.00
2022-12-04T18:07:45.486Z,52.00
2022-12-04T18:12:48.278Z,49.00
2022-12-04T18:17:52.440Z,54.33
2022-12-04T18:22:55.368Z,53.67
2022-12-04T18:27:59.449Z,44.75
2022-12-04T18:33:03.690Z,52.33
2022-12-04T18:38:06.456Z,54.33
2022-12-04T18:43:09.290Z,55.33
2022-12-04T18:48:14.801Z,55.33
2022-12-04T18:53:18.529Z,48.33
2022-12-04T18:58:22.607Z,51.33
2022-12-04T19:03:26.698Z,53.67
2022-12-04T19:08:33.221Z,48.67
2022-12-04T19:13:37.817Z,53.33
2022-12-04T19:18:42.304Z,51.67
2022-12-04T19:23:50.079Z,51.67
2022-12-04T19:28:53.921Z,51.33
2022-12-04T19:33:58.037Z,54.33
2022-12-04T19:39:01.335Z,53.00
2022-12-04T19:44:20.010Z,58.00
2022-12-04T19:49:28.567Z,51.33
2022-12-04T19:54:31.761Z,48.33
2022-12-04T19:59:37.772Z,53.00
2022-12-04T20:04:44.136Z,53.33
2022-12-04T20:09:51.926Z,57.67
2022-12-04T20:14:55.331Z,46.67
2022-12-04T20:19:59.719Z,51.67
2022-12-04T20:25:02.880Z,57.00
2022-12-04T20:30:07.184Z,55.67
2022-12-04T20:35:11.504Z,52.00
2022-12-04T20:40:14.584Z,58.67
2022-12-04T20:45:17.570Z,56.00
2022-12-04T20:50:21.716Z,54.00
2022-12-04T20:55:24.573Z,54.33
2022-12-04T21:00:28.572Z,59.33
2022-12-04T21:05:32.827Z,54.67
2022-12-04T21:10:35.769Z,57.00
2022-12-04T21:15:55.993Z,51.67
2022-12-04T21:21:00.138Z,54.33
2022-12-04T21:26:03.378Z,55.67
2022-12-04T21:31:06.753Z,56.00
2022-12-04T21:36:11.431Z,55.33
2022-12-04T21:41:35.080Z,60.67
2022-12-04T21:46:37.964Z,53.00
2022-12-04T21:51:58.842Z,58.33
2022-12-04T21:57:02.134Z,59.33
2022-12-04T22:02:04.958Z,57.00
2022-12-04T22:07:09.197Z,53.67
2022-12-04T22:12:41.375Z,60.00
2022-12-04T22:17:34.843Z,54.33
2022-12-04T22:22:39.020Z,56.00
2022-12-04T22:27:41.829Z,55.00
2022-12-04T22:32:45.218Z,53.33
2022-12-04T22:37:49.536Z,55.00
2022-12-04T22:42:52.290Z,57.00
2022-12-04T22:47:55.074Z,55.67
2022-12-04T22:52:59.305Z,57.00
2022-12-04T22:58:02.127Z,55.00
2022-12-04T23:03:05.117Z,57.00
2022-12-04T23:08:10.005Z,53.67
2022-12-04T23:13:12.850Z,60.00
2022-12-04T23:18:15.627Z,59.00
2022-12-04T23:23:19.946Z,52.67
2022-12-04T23:28:23.166Z,54.67
2022-12-04T23:33:26.168Z,50.33
2022-12-04T23:38:30.391Z,52.33
2022-12-04T23:43:33.271Z,54.67
2022-12-04T23:48:36.231Z,51.00
2022-12-04T23:53:40.507Z,53.00
2022-12-04T23:58:43.572Z,51.67
